Terminal Aerodrome Forecast
Issued by NWS Wilmington, OH

Current Version | Previous Version | Text Only | Print | Product List | Glossary Off
Versions: 1 2 3 4 5 6 7 8 9 10 11 12 13 14 15 16 17

660
FTUS41 KILN 250858 AAB
TAFCMH
TAF AMD
KCMH 250858Z 2509/2606 15004KT P6SM FEW140 BKN250
     FM251300 23005KT P6SM SCT100 BKN250
     FM251600 26010KT P6SM VCTS BKN040CB
     FM252100 28009KT P6SM VCTS SCT040CB
     FM260100 24004KT P6SM SCT250=

USA.gov is the U.S. government's official web portal to all federal, state and local government web resources and services.